Insula Oya 2 — FUKI — position and weather

sailwx.info

Track history (hours):
 
Tides and Currents Weather Stations Pressure Air Temp Water Temp Dewpoint Dewpoint Depression Visibility Wind Speed Wind Dir Waves Ship Positions

Insula Oya 2

Last reported at 2016-Aug-25 21:33 UTC. Time now 2016-Aug-25 21:57 UTC.
Position N 46°54' W 002°08'.

Length 50 m; draft 2.5 m.

Type: Passenger vessel. MMSI: 227004900.

Date/timePositionNaut miles runAvg speedWind from/ knotsBaromVisibWave heightAir tempDewpointWater temp
2016-Aug-25 21:33N 46°54' W 002°08'0 0.0
2016-Aug-25 20:34N 46°54' W 002°08'0 0.0
2016-Aug-25 19:34N 46°54' W 002°08'0 0.0
2016-Aug-25 18:34N 46°54' W 002°08'0 0.0
2016-Aug-25 17:33N 46°54' W 002°08'0 0.0
2016-Aug-25 16:33N 46°54' W 002°08'0 0.0
2016-Aug-25 15:33N 46°54' W 002°08'0 0.0
2016-Aug-25 14:31N 46°54' W 002°08'0 0.0
2016-Aug-25 12:33N 46°54' W 002°08'0 0.0
2016-Aug-25 11:28N 46°54' W 002°08'7 7.5
2016-Aug-25 10:30N 46°49' W 002°16'5 1.5
2016-Aug-25 07:29N 46°45' W 002°19'1212.6
2016-Aug-25 06:34N 46°54' W 002°08'0 0.0
2016-Aug-25 04:33N 46°54' W 002°08'0 0.0
2016-Aug-25 03:34N 46°54' W 002°08'0 0.0
2016-Aug-25 02:34N 46°54' W 002°08'0 0.0
2016-Aug-25 01:34N 46°54' W 002°08'0 0.0
2016-Aug-25 00:33N 46°54' W 002°08'0 0.0
2016-Aug-24 23:34N 46°54' W 002°08'0 0.0
2016-Aug-24 22:33N 46°54' W 002°08'0 0.0
2016-Aug-24 21:34N 46°54' W 002°08'0 0.0
2016-Aug-24 20:33N 46°54' W 002°08'0 0.0
2016-Aug-24 19:33N 46°54' W 002°08'0 0.0
2016-Aug-24 18:34N 46°54' W 002°08'0 0.0
2016-Aug-24 17:34N 46°54' W 002°08'0 0.0
2016-Aug-24 16:33N 46°54' W 002°08'0 0.0
2016-Aug-24 15:33N 46°54' W 002°08'0 0.0
2016-Aug-24 14:33N 46°54' W 002°08'0 0.0
2016-Aug-24 13:34N 46°54' W 002°08'0 0.0
2016-Aug-24 12:34N 46°54' W 002°08'0 0.0
2016-Aug-24 11:33N 46°54' W 002°08'0 0.0
2016-Aug-24 10:33N 46°54' W 002°08'9 8.6
2016-Aug-24 09:27N 46°47' W 002°18'4 3.6
2016-Aug-24 08:21N 46°44' W 002°21'0 0.0
2016-Aug-24 07:12N 46°44' W 002°21'1 1.6
2016-Aug-24 06:33N 46°44' W 002°20'12 6.1
2016-Aug-24 04:33N 46°54' W 002°08'0 0.0
2016-Aug-24 03:33N 46°54' W 002°08'0 0.0
2016-Aug-24 02:33N 46°54' W 002°08'0 0.0
2016-Aug-24 01:33N 46°54' W 002°08'0 0.0
2016-Aug-24 00:33N 46°54' W 002°08'0 0.0
2016-Aug-23 23:33N 46°54' W 002°08'0 0.0
2016-Aug-23 22:33N 46°54' W 002°08'0 0.0
2016-Aug-23 21:33N 46°54' W 002°08'0 0.0
2016-Aug-23 20:33N 46°54' W 002°08'0 0.0
2016-Aug-23 19:31N 46°54' W 002°08'0 0.0
2016-Aug-23 18:33N 46°54' W 002°08'0 0.0
2016-Aug-23 17:33N 46°54' W 002°08'10 9.7
2016-Aug-23 16:33N 46°47' W 002°18'3 0.3
2016-Aug-23 06:23N 46°44' W 002°21'1113.6
2016-Aug-23 05:33N 46°53' W 002°11'2 2.2
2016-Aug-23 04:33N 46°54' W 002°08'0 0.0
2016-Aug-23 03:33N 46°54' W 002°08'0 0.0
2016-Aug-23 02:33N 46°54' W 002°08'0 0.0
2016-Aug-23 01:33N 46°54' W 002°08'0 0.0
2016-Aug-23 00:33N 46°54' W 002°08'0 0.0
2016-Aug-22 23:33N 46°54' W 002°08'0 0.0
2016-Aug-22 22:33N 46°54' W 002°08'0 0.0
2016-Aug-22 21:33N 46°54' W 002°08'0 0.0
2016-Aug-22 20:33N 46°54' W 002°08'0 0.0
2016-Aug-22 19:34N 46°54' W 002°08'0 0.0
2016-Aug-22 18:33N 46°54' W 002°08'0 0.0
2016-Aug-22 17:33N 46°54' W 002°08'3 3.4
2016-Aug-22 16:33N 46°52' W 002°13'10 1.9
2016-Aug-22 11:07N 46°44' W 002°21'0 0.0
2016-Aug-22 09:16N 46°44' W 002°21'0 0.0
2016-Aug-22 08:33N 46°44' W 002°21'7 6.8
2016-Aug-22 07:33N 46°49' W 002°16'7 6.6
2016-Aug-22 06:33N 46°54' W 002°08'0 0.0
2016-Aug-22 05:33N 46°54' W 002°08'7 6.7
2016-Aug-22 04:33N 46°49' W 002°15'7 2.7
2016-Aug-22 02:05N 46°44' W 002°21'0 0.0
2016-Aug-22 01:32N 46°44' W 002°21'0 0.0
2016-Aug-22 00:33N 46°44' W 002°21'1 0.0
2016-Aug-20 07:05N 46°45' W 002°20'713.5
2016-Aug-20 06:33N 46°51' W 002°14'5 4.7
2016-Aug-20 05:33N 46°54' W 002°08'0 0.0
2016-Aug-20 04:33N 46°54' W 002°08'0 0.0
2016-Aug-20 03:33N 46°54' W 002°08'0 0.0
2016-Aug-20 02:33N 46°54' W 002°08'0 0.0
2016-Aug-20 01:33N 46°54' W 002°08'0 0.0
2016-Aug-20 00:33N 46°54' W 002°08'0 0.0
2016-Aug-19 23:33N 46°54' W 002°08'0 0.0
2016-Aug-19 22:33N 46°54' W 002°08'0 0.0
2016-Aug-19 21:33N 46°54' W 002°08'0 0.0
2016-Aug-19 20:33N 46°54' W 002°08'0 0.0
2016-Aug-19 19:33N 46°54' W 002°08'0 0.0
2016-Aug-19 18:33N 46°54' W 002°08'0 0.0
2016-Aug-19 17:33N 46°54' W 002°08'0 0.0
2016-Aug-19 16:33N 46°54' W 002°08'0 0.0
2016-Aug-19 15:33N 46°54' W 002°08'1 0.9
2016-Aug-19 14:33N 46°54' W 002°10'12 1.4
2016-Aug-19 06:18N 46°44' W 002°20'1013.9
2016-Aug-19 05:33N 46°53' W 002°12'2 2.5
2016-Aug-19 04:34N 46°54' W 002°08'0 0.0
2016-Aug-19 03:33N 46°54' W 002°08'0 0.0
2016-Aug-19 02:33N 46°54' W 002°08'0 0.0
2016-Aug-19 01:33N 46°54' W 002°08'0 0.0
2016-Aug-19 00:34N 46°54' W 002°08'0 0.0
2016-Aug-18 23:33N 46°54' W 002°08'0 0.0
2016-Aug-18 22:34N 46°54' W 002°08'0 0.0
2016-Aug-18 21:34N 46°54' W 002°08'0 0.0
2016-Aug-18 20:34N 46°54' W 002°08'0 0.0
2016-Aug-18 19:33N 46°54' W 002°08'0 0.0
2016-Aug-18 18:33N 46°54' W 002°08'0 0.0
2016-Aug-18 17:33N 46°54' W 002°08'0 0.0
2016-Aug-18 16:32N 46°54' W 002°08'0 0.0
2016-Aug-18 15:33N 46°54' W 002°08'0 0.0
2016-Aug-18 14:33N 46°54' W 002°08'10 1.1
2016-Aug-18 05:31N 46°46' W 002°18'1010.8
2016-Aug-18 04:33N 46°54' W 002°08'0 0.0
2016-Aug-18 03:27N 46°54' W 002°08'9 8.6
2016-Aug-18 02:27N 46°47' W 002°17'0 0.0
2016-Aug-17 14:22N 46°48' W 002°17'810.5
2016-Aug-17 13:33N 46°54' W 002°08'1 0.9
2016-Aug-17 12:13N 46°54' W 002°10'0 0.0
2016-Aug-17 11:33N 46°54' W 002°10'0 0.0
2016-Aug-17 10:28N 46°54' W 002°10'0 0.0
2016-Aug-17 09:34N 46°54' W 002°10'0 0.0
2016-Aug-17 08:33N 46°54' W 002°10'0 0.0
2016-Aug-17 07:34N 46°54' W 002°10'0 0.0
2016-Aug-17 06:33N 46°54' W 002°10'0 0.0
2016-Aug-17 05:34N 46°54' W 002°10'0 0.0
2016-Aug-17 04:33N 46°54' W 002°10'1 1.2
2016-Aug-17 03:34N 46°54' W 002°08'0 0.0
2016-Aug-17 02:33N 46°54' W 002°08'0 0.0
2016-Aug-17 01:34N 46°54' W 002°08'0 0.0
2016-Aug-17 00:34N 46°54' W 002°08'0 0.0
2016-Aug-16 23:34N 46°54' W 002°08'0 0.0
2016-Aug-16 22:34N 46°54' W 002°08'0 0.0
2016-Aug-16 21:32N 46°54' W 002°08'0 0.0
2016-Aug-16 20:33N 46°54' W 002°08'0 0.0
2016-Aug-16 19:30N 46°54' W 002°08'6 0.4
2016-Aug-16 03:33N 46°50' W 002°15'6 5.2
2016-Aug-16 02:26N 46°54' W 002°08'0 0.0
2016-Aug-16 01:29N 46°54' W 002°08'0 0.0
2016-Aug-16 00:33N 46°54' W 002°08'0 0.0
2016-Aug-15 23:33N 46°54' W 002°08'0 0.0
2016-Aug-15 22:33N 46°54' W 002°08'  
Track history (hours):
 
Tides and Currents Weather Stations Pressure Air Temp Water Temp Dewpoint Dewpoint Depression Visibility Wind Speed Wind Dir Waves Ship Positions

Insula Oya 2

Last reported at 2016-Aug-25 21:33 UTC. Time now 2016-Aug-25 21:57 UTC.
Position N 46°54' W 002°08'.

Length 50 m; draft 2.5 m.

Type: Passenger vessel. MMSI: 227004900.

Date/timePositionNaut miles runAvg speedWind from/ knotsBaromVisibWave heightAir tempDewpointWater temp
2016-Aug-25 21:33N 46°54' W 002°08'0 0.0
2016-Aug-25 20:34N 46°54' W 002°08'0 0.0
2016-Aug-25 19:34N 46°54' W 002°08'0 0.0
2016-Aug-25 18:34N 46°54' W 002°08'0 0.0
2016-Aug-25 17:33N 46°54' W 002°08'0 0.0
2016-Aug-25 16:33N 46°54' W 002°08'0 0.0
2016-Aug-25 15:33N 46°54' W 002°08'0 0.0
2016-Aug-25 14:31N 46°54' W 002°08'0 0.0
2016-Aug-25 12:33N 46°54' W 002°08'0 0.0
2016-Aug-25 11:28N 46°54' W 002°08'7 7.5
2016-Aug-25 10:30N 46°49' W 002°16'5 1.5
2016-Aug-25 07:29N 46°45' W 002°19'1212.6
2016-Aug-25 06:34N 46°54' W 002°08'0 0.0
2016-Aug-25 04:33N 46°54' W 002°08'0 0.0
2016-Aug-25 03:34N 46°54' W 002°08'0 0.0
2016-Aug-25 02:34N 46°54' W 002°08'0 0.0
2016-Aug-25 01:34N 46°54' W 002°08'0 0.0
2016-Aug-25 00:33N 46°54' W 002°08'0 0.0
2016-Aug-24 23:34N 46°54' W 002°08'0 0.0
2016-Aug-24 22:33N 46°54' W 002°08'0 0.0
2016-Aug-24 21:34N 46°54' W 002°08'0 0.0
2016-Aug-24 20:33N 46°54' W 002°08'0 0.0
2016-Aug-24 19:33N 46°54' W 002°08'0 0.0
2016-Aug-24 18:34N 46°54' W 002°08'0 0.0
2016-Aug-24 17:34N 46°54' W 002°08'0 0.0
2016-Aug-24 16:33N 46°54' W 002°08'0 0.0
2016-Aug-24 15:33N 46°54' W 002°08'0 0.0
2016-Aug-24 14:33N 46°54' W 002°08'0 0.0
2016-Aug-24 13:34N 46°54' W 002°08'0 0.0
2016-Aug-24 12:34N 46°54' W 002°08'0 0.0
2016-Aug-24 11:33N 46°54' W 002°08'0 0.0
2016-Aug-24 10:33N 46°54' W 002°08'9 8.6
2016-Aug-24 09:27N 46°47' W 002°18'4 3.6
2016-Aug-24 08:21N 46°44' W 002°21'0 0.0
2016-Aug-24 07:12N 46°44' W 002°21'1 1.6
2016-Aug-24 06:33N 46°44' W 002°20'12 6.1
2016-Aug-24 04:33N 46°54' W 002°08'0 0.0
2016-Aug-24 03:33N 46°54' W 002°08'0 0.0
2016-Aug-24 02:33N 46°54' W 002°08'0 0.0
2016-Aug-24 01:33N 46°54' W 002°08'0 0.0
2016-Aug-24 00:33N 46°54' W 002°08'0 0.0
2016-Aug-23 23:33N 46°54' W 002°08'0 0.0
2016-Aug-23 22:33N 46°54' W 002°08'0 0.0
2016-Aug-23 21:33N 46°54' W 002°08'0 0.0
2016-Aug-23 20:33N 46°54' W 002°08'0 0.0
2016-Aug-23 19:31N 46°54' W 002°08'0 0.0
2016-Aug-23 18:33N 46°54' W 002°08'0 0.0
2016-Aug-23 17:33N 46°54' W 002°08'10 9.7
2016-Aug-23 16:33N 46°47' W 002°18'3 0.3
2016-Aug-23 06:23N 46°44' W 002°21'1113.6
2016-Aug-23 05:33N 46°53' W 002°11'2 2.2
2016-Aug-23 04:33N 46°54' W 002°08'0 0.0
2016-Aug-23 03:33N 46°54' W 002°08'0 0.0
2016-Aug-23 02:33N 46°54' W 002°08'0 0.0
2016-Aug-23 01:33N 46°54' W 002°08'0 0.0
2016-Aug-23 00:33N 46°54' W 002°08'0 0.0
2016-Aug-22 23:33N 46°54' W 002°08'0 0.0
2016-Aug-22 22:33N 46°54' W 002°08'0 0.0
2016-Aug-22 21:33N 46°54' W 002°08'0 0.0
2016-Aug-22 20:33N 46°54' W 002°08'0 0.0
2016-Aug-22 19:34N 46°54' W 002°08'0 0.0
2016-Aug-22 18:33N 46°54' W 002°08'0 0.0
2016-Aug-22 17:33N 46°54' W 002°08'3 3.4
2016-Aug-22 16:33N 46°52' W 002°13'10 1.9
2016-Aug-22 11:07N 46°44' W 002°21'0 0.0
2016-Aug-22 09:16N 46°44' W 002°21'0 0.0
2016-Aug-22 08:33N 46°44' W 002°21'7 6.8
2016-Aug-22 07:33N 46°49' W 002°16'7 6.6
2016-Aug-22 06:33N 46°54' W 002°08'0 0.0
2016-Aug-22 05:33N 46°54' W 002°08'7 6.7
2016-Aug-22 04:33N 46°49' W 002°15'7 2.7
2016-Aug-22 02:05N 46°44' W 002°21'0 0.0
2016-Aug-22 01:32N 46°44' W 002°21'0 0.0
2016-Aug-22 00:33N 46°44' W 002°21'1 0.0
2016-Aug-20 07:05N 46°45' W 002°20'713.5
2016-Aug-20 06:33N 46°51' W 002°14'5 4.7
2016-Aug-20 05:33N 46°54' W 002°08'0 0.0
2016-Aug-20 04:33N 46°54' W 002°08'0 0.0
2016-Aug-20 03:33N 46°54' W 002°08'0 0.0
2016-Aug-20 02:33N 46°54' W 002°08'0 0.0
2016-Aug-20 01:33N 46°54' W 002°08'0 0.0
2016-Aug-20 00:33N 46°54' W 002°08'0 0.0
2016-Aug-19 23:33N 46°54' W 002°08'0 0.0
2016-Aug-19 22:33N 46°54' W 002°08'0 0.0
2016-Aug-19 21:33N 46°54' W 002°08'0 0.0
2016-Aug-19 20:33N 46°54' W 002°08'0 0.0
2016-Aug-19 19:33N 46°54' W 002°08'0 0.0
2016-Aug-19 18:33N 46°54' W 002°08'0 0.0
2016-Aug-19 17:33N 46°54' W 002°08'0 0.0
2016-Aug-19 16:33N 46°54' W 002°08'0 0.0
2016-Aug-19 15:33N 46°54' W 002°08'1 0.9
2016-Aug-19 14:33N 46°54' W 002°10'12 1.4
2016-Aug-19 06:18N 46°44' W 002°20'1013.9
2016-Aug-19 05:33N 46°53' W 002°12'2 2.5
2016-Aug-19 04:34N 46°54' W 002°08'0 0.0
2016-Aug-19 03:33N 46°54' W 002°08'0 0.0
2016-Aug-19 02:33N 46°54' W 002°08'0 0.0
2016-Aug-19 01:33N 46°54' W 002°08'0 0.0
2016-Aug-19 00:34N 46°54' W 002°08'0 0.0
2016-Aug-18 23:33N 46°54' W 002°08'0 0.0
2016-Aug-18 22:34N 46°54' W 002°08'0 0.0
2016-Aug-18 21:34N 46°54' W 002°08'0 0.0
2016-Aug-18 20:34N 46°54' W 002°08'0 0.0
2016-Aug-18 19:33N 46°54' W 002°08'0 0.0
2016-Aug-18 18:33N 46°54' W 002°08'0 0.0
2016-Aug-18 17:33N 46°54' W 002°08'0 0.0
2016-Aug-18 16:32N 46°54' W 002°08'0 0.0
2016-Aug-18 15:33N 46°54' W 002°08'0 0.0
2016-Aug-18 14:33N 46°54' W 002°08'10 1.1
2016-Aug-18 05:31N 46°46' W 002°18'1010.8
2016-Aug-18 04:33N 46°54' W 002°08'0 0.0
2016-Aug-18 03:27N 46°54' W 002°08'9 8.6
2016-Aug-18 02:27N 46°47' W 002°17'0 0.0
2016-Aug-17 14:22N 46°48' W 002°17'810.5
2016-Aug-17 13:33N 46°54' W 002°08'1 0.9
2016-Aug-17 12:13N 46°54' W 002°10'0 0.0
2016-Aug-17 11:33N 46°54' W 002°10'0 0.0
2016-Aug-17 10:28N 46°54' W 002°10'0 0.0
2016-Aug-17 09:34N 46°54' W 002°10'0 0.0
2016-Aug-17 08:33N 46°54' W 002°10'0 0.0
2016-Aug-17 07:34N 46°54' W 002°10'0 0.0
2016-Aug-17 06:33N 46°54' W 002°10'0 0.0
2016-Aug-17 05:34N 46°54' W 002°10'0 0.0
2016-Aug-17 04:33N 46°54' W 002°10'1 1.2
2016-Aug-17 03:34N 46°54' W 002°08'0 0.0
2016-Aug-17 02:33N 46°54' W 002°08'0 0.0
2016-Aug-17 01:34N 46°54' W 002°08'0 0.0
2016-Aug-17 00:34N 46°54' W 002°08'0 0.0
2016-Aug-16 23:34N 46°54' W 002°08'0 0.0
2016-Aug-16 22:34N 46°54' W 002°08'0 0.0
2016-Aug-16 21:32N 46°54' W 002°08'0 0.0
2016-Aug-16 20:33N 46°54' W 002°08'0 0.0
2016-Aug-16 19:30N 46°54' W 002°08'6 0.4
2016-Aug-16 03:33N 46°50' W 002°15'6 5.2
2016-Aug-16 02:26N 46°54' W 002°08'0 0.0
2016-Aug-16 01:29N 46°54' W 002°08'0 0.0
2016-Aug-16 00:33N 46°54' W 002°08'0 0.0
2016-Aug-15 23:33N 46°54' W 002°08'0 0.0
2016-Aug-15 22:33N 46°54' W 002°08'  

Dump ship's entire track history